Terminal Aerodrome Forecast
Issued by NWS North Platte, NE

Home | Current Version | Previous Version | Graphics & Text | Print | Product List | Glossary On
Versions: 1 2 3 4 5 6 7 8 9 10 11 12 13
000
FTUS43 KLBF 311700
TAFVTN
TAF
KVTN 311720Z 3118/0118 16013G20KT P6SM BKN100
     FM311900 16016G23KT P6SM SCT120
     FM010100 13011KT P6SM SCT070
     FM010900 16007KT P6SM OVC015
     FM011500 17012KT P6SM OVC060=

USA.gov is the U.S. government's official web portal to all federal, state and local government web resources and services.